createdAt,value
2023-06-11T00:00:54.465Z,15.75
2023-06-11T00:03:41.501Z,15.67
2023-06-11T00:06:27.341Z,15.68
2023-06-11T00:09:12.172Z,15.62
2023-06-11T00:11:56.839Z,15.60
2023-06-11T00:14:41.343Z,15.57
2023-06-11T00:17:26.324Z,15.50
2023-06-11T00:20:11.892Z,15.50
2023-06-11T00:22:57.027Z,15.47
2023-06-11T00:25:41.691Z,15.51
2023-06-11T00:28:26.110Z,15.51
2023-06-11T00:31:11.256Z,15.54
2023-06-11T00:33:56.651Z,15.52
2023-06-11T00:36:41.181Z,15.44
2023-06-11T00:39:25.754Z,15.45
2023-06-11T00:42:10.698Z,15.51
2023-06-11T00:44:55.244Z,15.53
2023-06-11T00:47:40.906Z,15.54
2023-06-11T00:50:26.595Z,15.51
2023-06-11T00:53:12.755Z,15.51
2023-06-11T00:55:57.567Z,15.48
2023-06-11T00:58:45.041Z,15.50
2023-06-11T01:01:36.245Z,15.51
2023-06-11T01:04:24.083Z,15.46
2023-06-11T01:07:13.601Z,15.40
2023-06-11T01:09:58.824Z,15.41
2023-06-11T01:12:43.652Z,15.37
2023-06-11T01:15:28.486Z,15.36
2023-06-11T01:18:19.548Z,15.36
2023-06-11T01:21:13.717Z,15.28
2023-06-11T01:24:04.076Z,15.23
2023-06-11T01:26:49.315Z,15.18
2023-06-11T01:29:39.861Z,15.12
2023-06-11T01:32:28.289Z,15.05
2023-06-11T01:35:16.361Z,15.01
2023-06-11T01:38:03.913Z,14.94
2023-06-11T01:40:57.616Z,14.86
2023-06-11T01:43:42.468Z,14.85
2023-06-11T01:46:27.815Z,14.80
2023-06-11T01:49:12.997Z,14.80
2023-06-11T01:51:57.495Z,14.76
2023-06-11T01:54:42.263Z,14.72
2023-06-11T01:57:26.644Z,14.71
2023-06-11T02:01:04.754Z,14.66
2023-06-11T02:03:49.932Z,14.64
2023-06-11T02:06:34.996Z,14.67
2023-06-11T02:09:19.984Z,14.65
2023-06-11T02:12:06.505Z,14.63
2023-06-11T02:14:51.610Z,14.65
2023-06-11T02:17:36.436Z,14.64
2023-06-11T02:20:21.463Z,14.63
2023-06-11T02:23:06.460Z,14.62
2023-06-11T02:25:51.510Z,14.65
2023-06-11T02:28:36.328Z,14.59
2023-06-11T02:31:21.398Z,14.61
2023-06-11T02:34:06.268Z,14.63
2023-06-11T02:36:52.388Z,14.63
2023-06-11T02:39:37.508Z,14.59
2023-06-11T02:42:22.473Z,14.62
2023-06-11T02:45:08.100Z,14.56
2023-06-11T02:47:52.770Z,14.60
2023-06-11T02:50:37.726Z,14.63
2023-06-11T02:53:22.735Z,14.63
2023-06-11T02:56:07.606Z,14.62
2023-06-11T02:58:52.208Z,14.60
2023-06-11T03:01:39.300Z,14.62
2023-06-11T03:04:24.873Z,14.63
2023-06-11T03:07:09.908Z,14.51
2023-06-11T03:09:54.812Z,14.53
2023-06-11T03:12:40.092Z,14.52
2023-06-11T03:15:24.913Z,14.53
2023-06-11T03:18:09.843Z,14.54
2023-06-11T03:20:58.970Z,14.48
2023-06-11T03:23:43.782Z,14.53
2023-06-11T03:26:29.591Z,14.50
2023-06-11T03:29:14.448Z,14.48
2023-06-11T03:32:05.098Z,14.46
2023-06-11T03:34:53.012Z,14.34
2023-06-11T03:37:40.105Z,14.26
2023-06-11T03:40:27.062Z,14.21
2023-06-11T03:43:13.444Z,14.14
2023-06-11T03:45:59.893Z,14.10
2023-06-11T03:48:44.819Z,14.00
2023-06-11T03:51:29.911Z,13.91
2023-06-11T03:54:14.898Z,13.91
2023-06-11T03:56:59.838Z,13.82
2023-06-11T03:59:44.927Z,13.81
2023-06-11T04:02:29.801Z,13.76
2023-06-11T04:05:15.052Z,13.74
2023-06-11T04:08:04.409Z,13.74
2023-06-11T04:10:49.796Z,13.75
2023-06-11T04:13:35.009Z,13.72
2023-06-11T04:16:19.940Z,13.59
2023-06-11T04:19:04.907Z,13.53
2023-06-11T04:21:50.375Z,13.58
2023-06-11T04:24:35.285Z,13.51
2023-06-11T04:27:21.458Z,13.46
2023-06-11T04:30:07.545Z,13.31
2023-06-11T04:32:56.142Z,13.34
2023-06-11T04:35:43.961Z,13.33
2023-06-11T04:38:29.264Z,13.30
2023-06-11T04:41:14.458Z,13.35
2023-06-11T04:44:04.040Z,13.32
2023-06-11T04:46:50.120Z,13.36
2023-06-11T04:49:35.471Z,13.31
2023-06-11T04:52:22.245Z,13.33
2023-06-11T04:55:10.581Z,13.40
2023-06-11T04:57:57.106Z,13.37
2023-06-11T05:00:43.585Z,13.39
2023-06-11T05:03:29.929Z,13.26
2023-06-11T05:06:14.969Z,13.30
2023-06-11T05:09:03.911Z,13.26
2023-06-11T05:11:49.469Z,13.21
2023-06-11T05:14:35.742Z,13.23
2023-06-11T05:17:20.750Z,13.34
2023-06-11T05:20:08.396Z,13.34
2023-06-11T05:23:00.080Z,13.39
2023-06-11T05:25:47.801Z,13.28
2023-06-11T05:28:35.774Z,13.26
2023-06-11T05:31:22.099Z,13.23
2023-06-11T05:34:08.439Z,13.12
2023-06-11T05:36:53.495Z,13.06
2023-06-11T05:39:38.418Z,13.01
2023-06-11T05:42:24.498Z,13.10
2023-06-11T05:45:09.994Z,13.17
2023-06-11T05:47:55.562Z,13.14
2023-06-11T05:50:40.451Z,13.02
2023-06-11T05:53:25.322Z,13.00
2023-06-11T05:56:12.048Z,12.91
2023-06-11T05:58:57.380Z,12.89
2023-06-11T06:01:47.858Z,12.75
2023-06-11T06:04:35.831Z,12.58
2023-06-11T06:07:20.971Z,12.59
2023-06-11T06:10:08.399Z,12.48
2023-06-11T06:12:53.249Z,12.33
2023-06-11T06:15:38.405Z,12.22
2023-06-11T06:18:23.192Z,12.12
2023-06-11T06:21:07.996Z,12.09
2023-06-11T06:23:53.183Z,12.07
2023-06-11T06:26:41.455Z,12.08
2023-06-11T06:29:27.624Z,12.02
2023-06-11T06:32:13.021Z,12.10
2023-06-11T06:34:58.109Z,12.13
2023-06-11T06:37:43.086Z,12.09
2023-06-11T06:40:28.684Z,11.98
2023-06-11T06:43:13.604Z,11.94
2023-06-11T06:46:01.145Z,12.01
2023-06-11T06:48:52.196Z,12.10
2023-06-11T06:51:38.007Z,12.15
2023-06-11T06:54:24.352Z,12.22
2023-06-11T06:57:11.110Z,12.21
2023-06-11T06:59:56.860Z,12.17
2023-06-11T07:02:42.351Z,12.20
2023-06-11T07:05:28.161Z,12.21
2023-06-11T07:08:14.265Z,12.20
2023-06-11T07:10:59.916Z,12.14
2023-06-11T07:13:52.785Z,12.16
2023-06-11T07:16:38.543Z,12.07
2023-06-11T07:19:23.268Z,12.05
2023-06-11T07:22:08.258Z,11.90
2023-06-11T07:24:56.680Z,11.87
2023-06-11T07:27:42.107Z,11.94
2023-06-11T07:30:28.055Z,12.04
2023-06-11T07:33:13.157Z,12.10
2023-06-11T07:36:00.041Z,12.10
2023-06-11T07:38:44.928Z,12.03
2023-06-11T07:41:31.822Z,11.98
2023-06-11T07:44:20.401Z,12.00
2023-06-11T07:47:05.908Z,11.99
2023-06-11T07:49:51.059Z,12.02
2023-06-11T07:52:36.272Z,12.13
2023-06-11T07:55:30.093Z,12.15
2023-06-11T07:58:15.347Z,12.17
2023-06-11T08:01:00.262Z,12.40
2023-06-11T08:03:45.290Z,12.36
2023-06-11T08:06:30.360Z,12.47
2023-06-11T08:09:15.485Z,12.54
2023-06-11T08:12:00.476Z,12.55
2023-06-11T08:14:47.027Z,12.57
2023-06-11T08:17:32.099Z,12.37
2023-06-11T08:20:17.298Z,12.38
2023-06-11T08:23:02.470Z,12.34
2023-06-11T08:25:47.443Z,12.48
2023-06-11T08:28:32.663Z,12.59
2023-06-11T08:31:17.482Z,12.63
2023-06-11T08:34:02.511Z,12.76
2023-06-11T08:36:47.896Z,12.92
2023-06-11T08:39:32.981Z,12.90
2023-06-11T08:42:17.819Z,12.92
2023-06-11T08:45:03.008Z,13.01
2023-06-11T08:47:50.968Z,13.07
2023-06-11T08:50:36.698Z,13.13
2023-06-11T08:53:21.890Z,13.21
2023-06-11T08:56:07.332Z,13.30
2023-06-11T08:58:53.832Z,13.47
2023-06-11T09:01:40.865Z,13.64
2023-06-11T09:04:26.400Z,13.72
2023-06-11T09:07:11.502Z,13.71
2023-06-11T09:10:08.187Z,13.75
2023-06-11T09:12:56.769Z,13.67
2023-06-11T09:15:50.264Z,13.74
2023-06-11T09:18:35.428Z,13.72
2023-06-11T09:21:23.748Z,13.77
2023-06-11T09:24:10.818Z,13.79
2023-06-11T09:26:57.794Z,13.78
2023-06-11T09:29:45.154Z,13.60
2023-06-11T09:32:33.906Z,13.52
2023-06-11T09:35:22.491Z,13.34
2023-06-11T09:38:15.592Z,13.40
2023-06-11T09:41:04.278Z,13.16
2023-06-11T09:44:07.531Z,12.94
2023-06-11T09:46:53.020Z,12.91
2023-06-11T09:49:39.320Z,12.87
2023-06-11T09:52:24.655Z,12.90
2023-06-11T09:55:10.748Z,12.97
2023-06-11T09:57:56.977Z,12.85
2023-06-11T10:00:42.244Z,12.84
2023-06-11T10:03:28.617Z,12.70
2023-06-11T10:06:20.888Z,12.62
2023-06-11T10:09:11.659Z,12.47
2023-06-11T10:11:57.413Z,12.27
2023-06-11T10:14:50.097Z,12.46
2023-06-11T10:17:35.969Z,12.63
2023-06-11T10:20:26.921Z,12.57
2023-06-11T10:23:12.599Z,12.73
2023-06-11T10:25:58.458Z,12.77
2023-06-11T10:28:50.175Z,12.90
2023-06-11T10:31:42.554Z,12.87
2023-06-11T10:34:38.294Z,12.94
2023-06-11T10:37:29.136Z,12.76
2023-06-11T10:40:13.739Z,12.77
2023-06-11T10:42:58.789Z,12.90
2023-06-11T10:45:45.420Z,12.94
2023-06-11T10:48:32.019Z,12.99
2023-06-11T10:51:17.180Z,12.92
2023-06-11T10:54:03.230Z,12.90
2023-06-11T10:56:48.295Z,12.99
2023-06-11T10:59:34.111Z,13.06
2023-06-11T11:02:19.097Z,12.93
2023-06-11T11:05:08.021Z,12.81
2023-06-11T11:07:54.564Z,12.72
2023-06-11T11:10:39.487Z,12.76
2023-06-11T11:13:24.664Z,12.81
2023-06-11T11:16:09.610Z,12.93
2023-06-11T11:18:54.655Z,12.88
2023-06-11T11:21:40.145Z,12.90
2023-06-11T11:24:25.330Z,13.01
2023-06-11T11:27:10.650Z,12.98
2023-06-11T11:29:59.473Z,12.64
2023-06-11T11:32:46.881Z,12.61
2023-06-11T11:35:32.045Z,12.50
2023-06-11T11:38:17.831Z,12.62
2023-06-11T11:41:03.261Z,12.71
2023-06-11T11:43:49.481Z,12.76
2023-06-11T11:46:37.558Z,12.69
2023-06-11T11:49:22.556Z,12.65
2023-06-11T11:52:08.356Z,12.75
2023-06-11T11:54:56.514Z,12.88
2023-06-11T11:57:42.719Z,13.14
2023-06-11T12:00:27.702Z,12.85
2023-06-11T12:03:12.965Z,12.86
2023-06-11T12:06:00.602Z,12.92
2023-06-11T12:08:46.085Z,12.96
2023-06-11T12:11:31.204Z,13.07
2023-06-11T12:14:15.743Z,13.11
2023-06-11T12:17:01.219Z,12.99
2023-06-11T12:19:46.457Z,12.87
2023-06-11T12:22:31.579Z,12.83
2023-06-11T12:25:16.544Z,12.68
2023-06-11T12:28:01.508Z,12.73
2023-06-11T12:30:46.598Z,12.75
2023-06-11T12:33:31.773Z,12.74
2023-06-11T12:36:16.686Z,12.70
2023-06-11T12:39:04.032Z,12.87
2023-06-11T12:41:48.689Z,13.03
2023-06-11T12:44:33.696Z,13.15
2023-06-11T12:47:18.680Z,13.06
2023-06-11T12:50:04.165Z,13.09
2023-06-11T12:52:49.153Z,13.27
2023-06-11T12:55:34.179Z,13.28
2023-06-11T12:58:20.033Z,13.37
2023-06-11T13:01:05.275Z,13.29
2023-06-11T13:03:50.585Z,13.22
2023-06-11T13:06:35.715Z,13.11
2023-06-11T13:09:20.742Z,13.12
2023-06-11T13:12:07.055Z,12.92
2023-06-11T13:14:52.443Z,12.77
2023-06-11T13:17:37.336Z,12.67
2023-06-11T13:20:22.861Z,12.80
2023-06-11T13:23:08.680Z,12.84
2023-06-11T13:25:54.368Z,12.82
2023-06-11T13:28:39.847Z,12.66
2023-06-11T13:31:24.749Z,12.77
2023-06-11T13:34:09.500Z,12.78
2023-06-11T13:36:56.781Z,12.73
2023-06-11T13:39:41.938Z,12.73
2023-06-11T13:42:26.744Z,12.59
2023-06-11T13:45:12.063Z,12.61
2023-06-11T13:48:02.215Z,12.72
2023-06-11T13:50:49.015Z,12.79
2023-06-11T13:53:33.702Z,12.68
2023-06-11T13:56:18.938Z,12.78
2023-06-11T13:59:03.703Z,12.85
2023-06-11T14:01:48.522Z,12.92
2023-06-11T14:04:33.307Z,12.94
2023-06-11T14:07:18.964Z,12.76
2023-06-11T14:10:05.761Z,12.78
2023-06-11T14:12:50.663Z,12.70
2023-06-11T14:15:35.511Z,12.62
2023-06-11T14:18:20.416Z,12.67
2023-06-11T14:21:05.542Z,12.68
2023-06-11T14:23:50.511Z,12.68
2023-06-11T14:26:35.722Z,12.62
2023-06-11T14:29:20.198Z,12.70
2023-06-11T14:32:05.849Z,12.76
2023-06-11T14:34:51.026Z,12.78
2023-06-11T14:37:36.044Z,12.72
2023-06-11T14:40:21.549Z,12.59
2023-06-11T14:43:06.334Z,12.62
2023-06-11T14:45:51.528Z,12.68
2023-06-11T14:48:36.381Z,12.68
2023-06-11T14:51:23.441Z,12.69
2023-06-11T14:54:08.245Z,12.65
2023-06-11T14:56:55.860Z,12.49
2023-06-11T14:59:42.933Z,12.53
2023-06-11T15:02:27.942Z,12.35
2023-06-11T15:05:12.952Z,12.26
2023-06-11T15:07:58.014Z,12.15
2023-06-11T15:10:43.071Z,12.19
2023-06-11T15:13:28.112Z,12.22
2023-06-11T15:16:12.870Z,12.12
2023-06-11T15:18:58.182Z,12.11
2023-06-11T15:21:44.246Z,12.02
2023-06-11T15:24:29.241Z,11.84
2023-06-11T15:27:17.633Z,11.92
2023-06-11T15:30:03.739Z,11.83
2023-06-11T15:32:48.659Z,11.71
2023-06-11T15:35:33.703Z,11.81
2023-06-11T15:38:19.590Z,11.64
2023-06-11T15:41:04.841Z,11.66
2023-06-11T15:43:49.948Z,11.59
2023-06-11T15:46:35.029Z,11.55
2023-06-11T15:49:20.269Z,11.47
2023-06-11T15:52:05.556Z,11.35
2023-06-11T15:54:50.674Z,11.27
2023-06-11T15:57:35.472Z,11.12
2023-06-11T16:00:20.399Z,11.06
2023-06-11T16:03:05.256Z,10.96
2023-06-11T16:05:50.547Z,10.96
2023-06-11T16:08:35.324Z,11.01
2023-06-11T16:11:20.307Z,11.04
2023-06-11T16:14:05.435Z,11.11
2023-06-11T16:16:50.296Z,11.15
2023-06-11T16:19:35.240Z,11.11
2023-06-11T16:22:20.084Z,11.16
2023-06-11T16:25:05.606Z,11.07
2023-06-11T16:27:50.689Z,11.12
2023-06-11T16:30:35.628Z,11.04
2023-06-11T16:33:20.456Z,11.02
2023-06-11T16:36:05.587Z,11.00
2023-06-11T16:38:50.459Z,11.02
2023-06-11T16:41:35.379Z,11.12
2023-06-11T16:44:20.379Z,11.09
2023-06-11T16:47:05.837Z,11.01
2023-06-11T16:49:50.997Z,11.04
2023-06-11T16:52:36.814Z,10.99
2023-06-11T16:55:22.235Z,10.90
2023-06-11T16:58:07.811Z,10.97
2023-06-11T17:00:52.737Z,10.93
2023-06-11T17:03:37.806Z,10.89
2023-06-11T17:06:27.305Z,10.86
2023-06-11T17:09:11.936Z,10.84
2023-06-11T17:11:56.918Z,10.88
2023-06-11T17:14:41.972Z,10.87
2023-06-11T17:17:26.870Z,10.89
2023-06-11T17:20:15.550Z,10.90
2023-06-11T17:23:01.831Z,10.98
2023-06-11T17:25:49.205Z,10.80
2023-06-11T17:28:34.058Z,10.73
2023-06-11T17:31:19.119Z,10.80
2023-06-11T17:34:04.199Z,10.79
2023-06-11T17:36:49.055Z,10.83
2023-06-11T17:39:34.381Z,10.89
2023-06-11T17:42:19.414Z,10.83
2023-06-11T17:45:04.828Z,10.79
2023-06-11T17:47:49.896Z,10.75
2023-06-11T17:50:34.989Z,10.72
2023-06-11T17:53:20.182Z,10.72
2023-06-11T17:56:05.441Z,10.69
2023-06-11T17:58:50.368Z,10.63
2023-06-11T18:01:37.070Z,10.63
2023-06-11T18:04:22.314Z,10.54
2023-06-11T18:07:06.966Z,10.48
2023-06-11T18:09:52.007Z,10.47
2023-06-11T18:12:37.761Z,10.50
2023-06-11T18:15:32.928Z,10.49
2023-06-11T18:18:20.337Z,10.51
2023-06-11T18:21:05.017Z,10.48
2023-06-11T18:23:50.023Z,10.40
2023-06-11T18:26:34.994Z,10.31
2023-06-11T18:29:20.089Z,10.18
2023-06-11T18:32:05.389Z,10.09
2023-06-11T18:34:50.491Z,9.93
2023-06-11T18:37:35.481Z,9.74
2023-06-11T18:40:20.418Z,9.75
2023-06-11T18:43:05.492Z,9.70
2023-06-11T18:45:50.531Z,9.71
2023-06-11T18:48:35.533Z,9.69
2023-06-11T18:51:20.510Z,9.56
2023-06-11T18:54:05.467Z,9.51
2023-06-11T18:56:50.724Z,9.51
2023-06-11T18:59:36.629Z,9.49
2023-06-11T19:02:21.672Z,9.47
2023-06-11T19:05:06.724Z,9.52
2023-06-11T19:07:51.379Z,9.56
2023-06-11T19:10:35.931Z,9.58
2023-06-11T19:13:20.960Z,9.57
2023-06-11T19:16:05.972Z,9.52
2023-06-11T19:18:50.855Z,9.57
2023-06-11T19:21:36.830Z,9.52
2023-06-11T19:24:21.858Z,9.55
2023-06-11T19:27:07.055Z,9.52
2023-06-11T19:29:51.717Z,9.50
2023-06-11T19:32:36.415Z,9.50
2023-06-11T19:35:21.647Z,9.45
2023-06-11T19:38:07.924Z,9.44
2023-06-11T19:40:53.126Z,9.43
2023-06-11T19:43:38.003Z,9.40
2023-06-11T19:46:26.440Z,9.38
2023-06-11T19:49:12.074Z,9.34
2023-06-11T19:51:57.016Z,9.33
2023-06-11T19:54:51.337Z,9.34
2023-06-11T19:57:37.191Z,9.33
2023-06-11T20:00:22.258Z,9.26
2023-06-11T20:03:07.068Z,9.20
2023-06-11T20:05:52.163Z,9.18
2023-06-11T20:08:37.682Z,9.17
2023-06-11T20:11:22.543Z,9.15
2023-06-11T20:14:07.196Z,9.11
2023-06-11T20:16:52.264Z,9.07
2023-06-11T20:19:37.320Z,9.02
2023-06-11T20:22:22.408Z,8.99
2023-06-11T20:25:07.700Z,8.94
2023-06-11T20:27:52.296Z,8.93
2023-06-11T20:30:37.356Z,8.90
2023-06-11T20:33:22.848Z,8.91
2023-06-11T20:36:08.010Z,8.88
2023-06-11T20:38:52.645Z,8.82
2023-06-11T20:41:37.709Z,8.85
2023-06-11T20:44:23.114Z,8.85
2023-06-11T20:47:08.786Z,8.81
2023-06-11T20:49:54.019Z,8.79
2023-06-11T20:52:38.885Z,8.77
2023-06-11T20:55:24.165Z,8.76
2023-06-11T20:58:09.192Z,8.72
2023-06-11T21:00:54.262Z,8.69
2023-06-11T21:03:39.081Z,8.70
2023-06-11T21:06:24.263Z,8.71
2023-06-11T21:09:09.367Z,8.72
2023-06-11T21:11:55.647Z,8.71
2023-06-11T21:14:40.262Z,8.67
2023-06-11T21:17:27.140Z,8.64
2023-06-11T21:20:12.407Z,8.62
2023-06-11T21:22:57.299Z,8.62
2023-06-11T21:25:42.150Z,8.64
2023-06-11T21:28:27.801Z,8.65
2023-06-11T21:31:12.722Z,8.62
2023-06-11T21:33:58.605Z,8.62
2023-06-11T21:36:43.638Z,8.60
2023-06-11T21:39:28.814Z,8.59
2023-06-11T21:42:13.518Z,8.60
2023-06-11T21:44:58.312Z,8.62
2023-06-11T21:47:43.338Z,8.65
2023-06-11T21:50:28.343Z,8.63
2023-06-11T21:53:14.175Z,8.59
2023-06-11T21:55:58.796Z,8.60
2023-06-11T21:58:44.195Z,8.61
2023-06-11T22:01:28.901Z,8.60
2023-06-11T22:04:15.328Z,8.58
2023-06-11T22:07:02.664Z,8.54
2023-06-11T22:09:47.818Z,8.55
2023-06-11T22:12:39.374Z,8.52
2023-06-11T22:15:27.004Z,8.49
2023-06-11T22:18:11.794Z,8.49
2023-06-11T22:20:57.748Z,8.50
2023-06-11T22:23:50.833Z,8.51
2023-06-11T22:26:36.182Z,8.43
2023-06-11T22:29:21.111Z,8.45
2023-06-11T22:32:05.831Z,8.43
2023-06-11T22:34:50.758Z,8.42
2023-06-11T22:37:36.486Z,8.45
2023-06-11T22:40:21.373Z,8.43
2023-06-11T22:43:07.245Z,8.41
2023-06-11T22:45:52.818Z,8.34
2023-06-11T22:48:37.824Z,8.33
2023-06-11T22:51:26.527Z,8.36
2023-06-11T22:54:11.192Z,8.39
2023-06-11T22:56:56.059Z,8.44
2023-06-11T22:59:40.882Z,8.41
2023-06-11T23:02:26.045Z,8.46
2023-06-11T23:05:11.161Z,8.47
2023-06-11T23:07:55.818Z,8.45
2023-06-11T23:10:40.852Z,8.45
2023-06-11T23:13:25.818Z,8.41
2023-06-11T23:16:11.130Z,8.43
2023-06-11T23:18:56.688Z,8.46
2023-06-11T23:21:43.084Z,8.47
2023-06-11T23:24:28.308Z,8.45
2023-06-11T23:27:15.476Z,8.46
2023-06-11T23:30:03.248Z,8.52
2023-06-11T23:32:48.772Z,8.51
2023-06-11T23:35:33.371Z,8.50
2023-06-11T23:38:18.362Z,8.53
2023-06-11T23:41:03.830Z,8.53
2023-06-11T23:43:48.934Z,8.52
2023-06-11T23:46:34.611Z,8.50
2023-06-11T23:49:19.572Z,8.50
2023-06-11T23:52:05.619Z,8.51
2023-06-11T23:54:50.515Z,8.53
2023-06-11T23:57:37.578Z,8.55
